PWSweather.com
Personal Weather Stations
Station Observations
NAGEO265NE
Bedzin GrodziecPL 42-506

Bedzin GrodziecPL 42-506

Lat: 50.347, Lon: 19.079

Elevation: 948

Station Type: WH1080

http://www.meteo-grodziec.pl/

High Low Average
Temperature 50.2°F10.1°C 41.5°F5.3°C 44.5°F6.9°C
Dew Point 41.7°F5.4°C 32.5°F0.3°C 35.8°F2.1°C
Winds 8.0 mph 12.9 kmh Calm Calm 4.0 mph W6.4 kmh W
Wind Gusts 26.0 mph41.8 kmh 1.0 mph1.6 kmh 13.0 mph20.9 kmh
Humidity 94% 54% 72%
Pressure 29.79 in1008.8 mb 29.46 in997.6 mb -
Precipitation 0.02 in0.5 mm - -
Hour Temp Dew Point Humidity Winds Wind Gusts Pressure Precip Precip Rate Daily Precip Total
12:00 AM 43.3°F6.3°C 41.5°F5.3°C 93% 3.0 mph WSW4.8 kmh WSW 13.0 mph20.9 kmh 29.50 in999.0 mb 0.08 in2.0 mm 0.00 in0.0 mm 0.08 in2.0 mm
12:05 AM 43.5°F6.4°C 41.5°F5.3°C 93% 4.0 mph WSW6.4 kmh WSW 13.0 mph20.9 kmh 29.50 in999.0 mb 0.08 in2.0 mm 0.00 in0.0 mm 0.08 in2.0 mm
12:10 AM 43.5°F6.4°C 41.5°F5.3°C 93% 4.0 mph WSW6.4 kmh WSW 17.0 mph27.4 kmh 29.50 in999.0 mb 0.08 in2.0 mm 0.00 in0.0 mm 0.08 in2.0 mm
12:15 AM 43.5°F6.4°C 41.7°F5.4°C 93% 5.0 mph WSW8.0 kmh WSW 17.0 mph27.4 kmh 29.49 in998.6 mb 0.08 in2.0 mm 0.00 in0.0 mm 0.08 in2.0 mm
12:20 AM 43.5°F6.4°C 41.4°F5.2°C 92% 6.0 mph WSW9.7 kmh WSW 17.0 mph27.4 kmh 29.49 in998.6 mb 0.08 in2.0 mm 0.00 in0.0 mm 0.01 in0.3 mm
12:25 AM 43.5°F6.4°C 41.2°F5.1°C 91% 6.0 mph WSW9.7 kmh WSW 17.0 mph27.4 kmh 29.48 in998.3 mb 0.07 in1.8 mm 0.00 in0.0 mm 0.01 in0.3 mm
12:30 AM 43.5°F6.4°C 40.8°F4.9°C 90% 6.0 mph WSW9.7 kmh WSW 14.0 mph22.5 kmh 29.48 in998.3 mb 0.06 in1.5 mm 0.00 in0.0 mm 0.01 in0.3 mm
12:35 AM 43.9°F6.6°C 40.8°F4.9°C 89% 6.0 mph WSW9.7 kmh WSW 15.0 mph24.1 kmh 29.46 in997.6 mb 0.06 in1.5 mm 0.00 in0.0 mm 0.01 in0.3 mm
12:40 AM 43.9°F6.6°C 39.9°F4.4°C 86% 6.0 mph WSW9.7 kmh WSW 19.0 mph30.6 kmh 29.46 in997.6 mb 0.04 in1.0 mm 0.00 in0.0 mm 0.01 in0.3 mm
12:45 AM 43.9°F6.6°C 39.7°F4.3°C 85% 6.0 mph SW9.7 kmh SW 19.0 mph30.6 kmh 29.46 in997.6 mb 0.03 in0.8 mm 0.00 in0.0 mm 0.01 in0.3 mm
12:50 AM 44.1°F6.7°C 39.6°F4.2°C 84% 6.0 mph SW9.7 kmh SW 19.0 mph30.6 kmh 29.47 in998.0 mb 0.02 in0.5 mm 0.00 in0.0 mm 0.01 in0.3 mm
12:55 AM 44.1°F6.7°C 39.0°F3.9°C 82% 6.0 mph WSW9.7 kmh WSW 19.0 mph30.6 kmh 29.48 in998.3 mb 0.02 in0.5 mm 0.00 in0.0 mm 0.01 in0.3 mm
01:00 AM 44.1°F6.7°C 38.8°F3.8°C 82% 6.0 mph WSW9.7 kmh WSW 17.0 mph27.4 kmh 29.47 in998.0 mb 0.01 in0.3 mm 0.00 in0.0 mm 0.01 in0.3 mm
01:05 AM 44.1°F6.7°C 38.7°F3.7°C 81% 5.0 mph WSW8.0 kmh WSW 16.0 mph25.7 kmh 29.48 in998.3 mb 0.01 in0.3 mm 0.00 in0.0 mm 0.01 in0.3 mm
01:10 AM 44.1°F6.7°C 38.3°F3.5°C 80% 5.0 mph WSW8.0 kmh WSW 16.0 mph25.7 kmh 29.47 in998.0 mb 0.01 in0.3 mm 0.00 in0.0 mm 0.01 in0.3 mm
01:15 AM 44.1°F6.7°C 37.9°F3.3°C 79% 4.0 mph WSW6.4 kmh WSW 13.0 mph20.9 kmh 29.47 in998.0 mb 0.01 in0.3 mm 0.00 in0.0 mm 0.01 in0.3 mm
01:20 AM 44.2°F6.8°C 38.1°F3.4°C 79% 4.0 mph WSW6.4 kmh WSW 13.0 mph20.9 kmh 29.47 in998.0 mb 0.00 in0.0 mm 0.00 in0.0 mm 0.01 in0.3 mm
01:25 AM 44.2°F6.8°C 38.1°F3.4°C 79% 4.0 mph WSW6.4 kmh WSW 13.0 mph20.9 kmh 29.47 in998.0 mb 0.00 in0.0 mm 0.00 in0.0 mm 0.01 in0.3 mm
01:30 AM 44.2°F6.8°C 38.1°F3.4°C 79% 4.0 mph WSW6.4 kmh WSW 17.0 mph27.4 kmh 29.47 in998.0 mb 0.00 in0.0 mm 0.00 in0.0 mm 0.01 in0.3 mm
01:35 AM 44.2°F6.8°C 38.1°F3.4°C 79% 4.0 mph WSW6.4 kmh WSW 17.0 mph27.4 kmh 29.47 in998.0 mb 0.00 in0.0 mm 0.00 in0.0 mm 0.01 in0.3 mm
01:40 AM 44.1°F6.7°C 37.9°F3.3°C 79% 3.0 mph WSW4.8 kmh WSW 11.0 mph17.7 kmh 29.48 in998.3 mb 0.00 in0.0 mm 0.00 in0.0 mm 0.01 in0.3 mm
01:45 AM 44.2°F6.8°C 38.1°F3.4°C 79% 4.0 mph WSW6.4 kmh WSW 14.0 mph22.5 kmh 29.48 in998.3 mb 0.00 in0.0 mm 0.00 in0.0 mm 0.01 in0.3 mm
01:50 AM 44.2°F6.8°C 38.1°F3.4°C 79% 3.0 mph WSW4.8 kmh WSW 14.0 mph22.5 kmh 29.48 in998.3 mb 0.00 in0.0 mm 0.00 in0.0 mm 0.01 in0.3 mm
01:55 AM 44.2°F6.8°C 38.1°F3.4°C 79% 3.0 mph WSW4.8 kmh WSW 11.0 mph17.7 kmh 29.48 in998.3 mb 0.00 in0.0 mm 0.00 in0.0 mm 0.01 in0.3 mm
02:00 AM 44.2°F6.8°C 38.1°F3.4°C 79% 3.0 mph WSW4.8 kmh WSW 10.0 mph16.1 kmh 29.48 in998.3 mb 0.00 in0.0 mm 0.00 in0.0 mm 0.01 in0.3 mm
02:05 AM 44.2°F6.8°C 38.1°F3.4°C 79% 3.0 mph WSW4.8 kmh WSW 12.0 mph19.3 kmh 29.48 in998.3 mb 0.00 in0.0 mm 0.00 in0.0 mm 0.01 in0.3 mm
02:10 AM 44.2°F6.8°C 38.1°F3.4°C 79% 3.0 mph WSW4.8 kmh WSW 12.0 mph19.3 kmh 29.48 in998.3 mb 0.00 in0.0 mm 0.00 in0.0 mm 0.01 in0.3 mm
02:15 AM 44.2°F6.8°C 38.1°F3.4°C 79% 3.0 mph WSW4.8 kmh WSW 9.0 mph14.5 kmh 29.49 in998.6 mb 0.00 in0.0 mm 0.00 in0.0 mm 0.01 in0.3 mm
02:20 AM 44.1°F6.7°C 37.8°F3.2°C 78% 3.0 mph W4.8 kmh W 9.0 mph14.5 kmh 29.49 in998.6 mb 0.00 in0.0 mm 0.00 in0.0 mm 0.01 in0.3 mm
02:25 AM 44.1°F6.7°C 37.8°F3.2°C 78% 3.0 mph W4.8 kmh W 9.0 mph14.5 kmh 29.50 in999.0 mb 0.00 in0.0 mm 0.00 in0.0 mm 0.01 in0.3 mm
02:30 AM 44.1°F6.7°C 37.4°F3.0°C 77% 3.0 mph W4.8 kmh W 9.0 mph14.5 kmh 29.50 in999.0 mb 0.00 in0.0 mm 0.00 in0.0 mm 0.01 in0.3 mm
02:35 AM 44.1°F6.7°C 37.2°F2.9°C 77% 3.0 mph W4.8 kmh W 9.0 mph14.5 kmh 29.50 in999.0 mb 0.00 in0.0 mm 0.00 in0.0 mm 0.01 in0.3 mm
02:40 AM 44.1°F6.7°C 37.2°F2.9°C 77% 3.0 mph W4.8 kmh W 9.0 mph14.5 kmh 29.50 in999.0 mb 0.00 in0.0 mm 0.00 in0.0 mm 0.01 in0.3 mm
02:45 AM 43.9°F6.6°C 37.2°F2.9°C 77% 3.0 mph W4.8 kmh W 9.0 mph14.5 kmh 29.50 in999.0 mb 0.00 in0.0 mm 0.00 in0.0 mm 0.01 in0.3 mm
02:50 AM 43.9°F6.6°C 37.4°F3.0°C 78% 2.0 mph WSW3.2 kmh WSW 8.0 mph12.9 kmh 29.50 in999.0 mb 0.00 in0.0 mm 0.00 in0.0 mm 0.01 in0.3 mm
02:55 AM 43.9°F6.6°C 37.4°F3.0°C 78% 2.0 mph WSW3.2 kmh WSW 7.0 mph11.3 kmh 29.50 in999.0 mb 0.00 in0.0 mm 0.00 in0.0 mm 0.01 in0.3 mm
03:00 AM 43.7°F6.5°C 37.2°F2.9°C 78% 2.0 mph W3.2 kmh W 6.0 mph9.7 kmh 29.50 in999.0 mb 0.00 in0.0 mm 0.00 in0.0 mm 0.01 in0.3 mm
03:05 AM 43.5°F6.4°C 37.6°F3.1°C 79% 1.0 mph W1.6 kmh W 8.0 mph12.9 kmh 29.50 in999.0 mb 0.00 in0.0 mm 0.00 in0.0 mm 0.01 in0.3 mm
03:10 AM 43.5°F6.4°C 37.6°F3.1°C 79% 1.0 mph WSW1.6 kmh WSW 9.0 mph14.5 kmh 29.50 in999.0 mb 0.00 in0.0 mm 0.00 in0.0 mm 0.01 in0.3 mm
03:15 AM 43.7°F6.5°C 37.6°F3.1°C 79% 2.0 mph WSW3.2 kmh WSW 9.0 mph14.5 kmh 29.50 in999.0 mb 0.00 in0.0 mm 0.00 in0.0 mm 0.01 in0.3 mm
03:20 AM 43.9°F6.6°C 37.4°F3.0°C 78% 3.0 mph WSW4.8 kmh WSW 9.0 mph14.5 kmh 29.50 in999.0 mb 0.00 in0.0 mm 0.00 in0.0 mm 0.01 in0.3 mm
03:25 AM 44.1°F6.7°C 36.9°F2.7°C 76% 4.0 mph WSW6.4 kmh WSW 13.0 mph20.9 kmh 29.50 in999.0 mb 0.00 in0.0 mm 0.00 in0.0 mm 0.01 in0.3 mm
03:30 AM 44.1°F6.7°C 36.7°F2.6°C 75% 5.0 mph WSW8.0 kmh WSW 16.0 mph25.7 kmh 29.51 in999.3 mb 0.00 in0.0 mm 0.00 in0.0 mm 0.01 in0.3 mm
03:35 AM 44.1°F6.7°C 36.0°F2.2°C 73% 6.0 mph W9.7 kmh W 16.0 mph25.7 kmh 29.51 in999.3 mb 0.00 in0.0 mm 0.00 in0.0 mm 0.01 in0.3 mm
03:40 AM 44.1°F6.7°C 36.0°F2.2°C 73% 6.0 mph WNW9.7 kmh WNW 19.0 mph30.6 kmh 29.52 in999.7 mb 0.00 in0.0 mm 0.00 in0.0 mm 0.01 in0.3 mm
03:45 AM 44.1°F6.7°C 35.2°F1.8°C 71% 7.0 mph WNW11.3 kmh WNW 19.0 mph30.6 kmh 29.52 in999.7 mb 0.00 in0.0 mm 0.00 in0.0 mm 0.01 in0.3 mm
03:50 AM 43.9°F6.6°C 35.1°F1.7°C 71% 7.0 mph WNW11.3 kmh WNW 18.0 mph29.0 kmh 29.52 in999.7 mb 0.00 in0.0 mm 0.00 in0.0 mm 0.01 in0.3 mm
03:55 AM 43.9°F6.6°C 35.1°F1.7°C 71% 6.0 mph NW9.7 kmh NW 18.0 mph29.0 kmh 29.52 in999.7 mb 0.00 in0.0 mm 0.00 in0.0 mm 0.01 in0.3 mm
04:00 AM 43.7°F6.5°C 35.2°F1.8°C 72% 6.0 mph NW9.7 kmh NW 17.0 mph27.4 kmh 29.53 in1000.0 mb 0.00 in0.0 mm 0.00 in0.0 mm 0.01 in0.3 mm
04:05 AM 43.5°F6.4°C 35.2°F1.8°C 72% 5.0 mph NW8.0 kmh NW 17.0 mph27.4 kmh 29.53 in1000.0 mb 0.00 in0.0 mm 0.00 in0.0 mm 0.01 in0.3 mm
04:10 AM 43.5°F6.4°C 35.4°F1.9°C 73% 3.0 mph WNW4.8 kmh WNW 14.0 mph22.5 kmh 29.53 in1000.0 mb 0.00 in0.0 mm 0.00 in0.0 mm 0.01 in0.3 mm
04:15 AM 43.3°F6.3°C 35.2°F1.8°C 73% 3.0 mph WNW4.8 kmh WNW 14.0 mph22.5 kmh 29.53 in1000.0 mb 0.00 in0.0 mm 0.00 in0.0 mm 0.01 in0.3 mm
04:20 AM 43.3°F6.3°C 35.2°F1.8°C 73% 3.0 mph WNW4.8 kmh WNW 14.0 mph22.5 kmh 29.54 in1000.3 mb 0.00 in0.0 mm 0.00 in0.0 mm 0.01 in0.3 mm
04:25 AM 43.3°F6.3°C 34.7°F1.5°C 71% 5.0 mph WNW8.0 kmh WNW 17.0 mph27.4 kmh 29.54 in1000.3 mb 0.00 in0.0 mm 0.00 in0.0 mm 0.01 in0.3 mm
04:30 AM 43.5°F6.4°C 34.7°F1.5°C 71% 6.0 mph WNW9.7 kmh WNW 17.0 mph27.4 kmh 29.54 in1000.3 mb 0.00 in0.0 mm 0.00 in0.0 mm 0.01 in0.3 mm
04:35 AM 43.3°F6.3°C 34.5°F1.4°C 71% 5.0 mph WNW8.0 kmh WNW 14.0 mph22.5 kmh 29.54 in1000.3 mb 0.00 in0.0 mm 0.00 in0.0 mm 0.01 in0.3 mm
04:40 AM 43.2°F6.2°C 34.3°F1.3°C 71% 4.0 mph WNW6.4 kmh WNW 13.0 mph20.9 kmh 29.55 in1000.7 mb 0.00 in0.0 mm 0.00 in0.0 mm 0.01 in0.3 mm
04:45 AM 43.2°F6.2°C 34.3°F1.3°C 71% 4.0 mph NW6.4 kmh NW 14.0 mph22.5 kmh 29.54 in1000.3 mb 0.00 in0.0 mm 0.00 in0.0 mm 0.01 in0.3 mm
04:50 AM 43.2°F6.2°C 34.0°F1.1°C 70% 5.0 mph NW8.0 kmh NW 19.0 mph30.6 kmh 29.55 in1000.7 mb 0.00 in0.0 mm 0.00 in0.0 mm 0.01 in0.3 mm
04:55 AM 43.2°F6.2°C 33.6°F0.9°C 69% 6.0 mph WNW9.7 kmh WNW 19.0 mph30.6 kmh 29.55 in1000.7 mb 0.00 in0.0 mm 0.00 in0.0 mm 0.01 in0.3 mm
05:00 AM 43.2°F6.2°C 33.6°F0.9°C 69% 6.0 mph WNW9.7 kmh WNW 18.0 mph29.0 kmh 29.55 in1000.7 mb 0.00 in0.0 mm 0.00 in0.0 mm 0.01 in0.3 mm
05:05 AM 43.0°F6.1°C 33.8°F1.0°C 70% 5.0 mph WNW8.0 kmh WNW 18.0 mph29.0 kmh 29.55 in1000.7 mb 0.00 in0.0 mm 0.00 in0.0 mm 0.01 in0.3 mm
05:10 AM 42.8°F6.0°C 33.6°F0.9°C 70% 4.0 mph WNW6.4 kmh WNW 16.0 mph25.7 kmh 29.55 in1000.7 mb 0.00 in0.0 mm 0.00 in0.0 mm 0.01 in0.3 mm
05:15 AM 43.0°F6.1°C 33.8°F1.0°C 70% 5.0 mph NW8.0 kmh NW 16.0 mph25.7 kmh 29.55 in1000.7 mb 0.00 in0.0 mm 0.00 in0.0 mm 0.01 in0.3 mm
05:20 AM 43.0°F6.1°C 33.8°F1.0°C 70% 7.0 mph WNW11.3 kmh WNW 22.0 mph35.4 kmh 29.56 in1001.0 mb 0.00 in0.0 mm 0.00 in0.0 mm 0.01 in0.3 mm
05:25 AM 42.8°F6.0°C 33.6°F0.9°C 70% 6.0 mph WNW9.7 kmh WNW 22.0 mph35.4 kmh 29.56 in1001.0 mb 0.00 in0.0 mm 0.00 in0.0 mm 0.01 in0.3 mm
05:30 AM 42.6°F5.9°C 33.6°F0.9°C 70% 5.0 mph WNW8.0 kmh WNW 14.0 mph22.5 kmh 29.57 in1001.4 mb 0.00 in0.0 mm 0.00 in0.0 mm 0.01 in0.3 mm
05:35 AM 42.6°F5.9°C 33.4°F0.8°C 70% 6.0 mph WNW9.7 kmh WNW 14.0 mph22.5 kmh 29.56 in1001.0 mb 0.00 in0.0 mm 0.00 in0.0 mm 0.01 in0.3 mm
05:40 AM 42.4°F5.8°C 33.4°F0.8°C 70% 6.0 mph WNW9.7 kmh WNW 16.0 mph25.7 kmh 29.57 in1001.4 mb 0.00 in0.0 mm 0.00 in0.0 mm 0.01 in0.3 mm
05:45 AM 42.4°F5.8°C 33.4°F0.8°C 70% 6.0 mph WNW9.7 kmh WNW 17.0 mph27.4 kmh 29.57 in1001.4 mb 0.00 in0.0 mm 0.00 in0.0 mm 0.01 in0.3 mm
05:50 AM 42.4°F5.8°C 33.3°F0.7°C 70% 6.0 mph WNW9.7 kmh WNW 17.0 mph27.4 kmh 29.57 in1001.4 mb 0.00 in0.0 mm 0.00 in0.0 mm 0.01 in0.3 mm
05:55 AM 42.3°F5.7°C 33.3°F0.7°C 70% 5.0 mph WNW8.0 kmh WNW 17.0 mph27.4 kmh 29.57 in1001.4 mb 0.00 in0.0 mm 0.00 in0.0 mm 0.01 in0.3 mm
06:00 AM 42.3°F5.7°C 33.1°F0.6°C 70% 5.0 mph NW8.0 kmh NW 17.0 mph27.4 kmh 29.58 in1001.7 mb 0.00 in0.0 mm 0.00 in0.0 mm 0.01 in0.3 mm
06:05 AM 42.3°F5.7°C 32.7°F0.4°C 69% 6.0 mph WNW9.7 kmh WNW 15.0 mph24.1 kmh 29.58 in1001.7 mb 0.00 in0.0 mm 0.00 in0.0 mm 0.01 in0.3 mm
06:10 AM 42.1°F5.6°C 33.1°F0.6°C 70% 6.0 mph WNW9.7 kmh WNW 15.0 mph24.1 kmh 29.58 in1001.7 mb 0.00 in0.0 mm 0.00 in0.0 mm 0.01 in0.3 mm
06:15 AM 42.1°F5.6°C 32.9°F0.5°C 70% 5.0 mph WNW8.0 kmh WNW 13.0 mph20.9 kmh 29.58 in1001.7 mb 0.00 in0.0 mm 0.00 in0.0 mm 0.01 in0.3 mm
06:20 AM 42.1°F5.6°C 32.9°F0.5°C 70% 5.0 mph WNW8.0 kmh WNW 14.0 mph22.5 kmh 29.59 in1002.0 mb 0.00 in0.0 mm 0.00 in0.0 mm 0.01 in0.3 mm
06:25 AM 42.1°F5.6°C 32.7°F0.4°C 69% 6.0 mph WNW9.7 kmh WNW 20.0 mph32.2 kmh 29.59 in1002.0 mb 0.00 in0.0 mm 0.00 in0.0 mm 0.01 in0.3 mm
06:30 AM 42.1°F5.6°C 33.1°F0.6°C 70% 6.0 mph WNW9.7 kmh WNW 20.0 mph32.2 kmh 29.59 in1002.0 mb 0.00 in0.0 mm 0.00 in0.0 mm 0.01 in0.3 mm
06:35 AM 42.1°F5.6°C 32.5°F0.3°C 69% 6.0 mph WNW9.7 kmh WNW 21.0 mph33.8 kmh 29.60 in1002.4 mb 0.00 in0.0 mm 0.00 in0.0 mm 0.01 in0.3 mm
06:40 AM 42.1°F5.6°C 32.5°F0.3°C 69% 6.0 mph NW9.7 kmh NW 21.0 mph33.8 kmh 29.60 in1002.4 mb 0.00 in0.0 mm 0.00 in0.0 mm 0.01 in0.3 mm
06:45 AM 42.1°F5.6°C 32.5°F0.3°C 69% 6.0 mph WNW9.7 kmh WNW 15.0 mph24.1 kmh 29.60 in1002.4 mb 0.00 in0.0 mm 0.00 in0.0 mm 0.01 in0.3 mm
06:50 AM 42.1°F5.6°C 32.7°F0.4°C 69% 6.0 mph WNW9.7 kmh WNW 22.0 mph35.4 kmh 29.61 in1002.7 mb 0.00 in0.0 mm 0.00 in0.0 mm 0.01 in0.3 mm
06:55 AM 42.1°F5.6°C 32.9°F0.5°C 70% 6.0 mph WNW9.7 kmh WNW 22.0 mph35.4 kmh 29.61 in1002.7 mb 0.00 in0.0 mm 0.00 in0.0 mm 0.01 in0.3 mm
07:00 AM 42.1°F5.6°C 32.9°F0.5°C 70% 5.0 mph WNW8.0 kmh WNW 16.0 mph25.7 kmh 29.61 in1002.7 mb 0.00 in0.0 mm 0.00 in0.0 mm 0.01 in0.3 mm
07:05 AM 41.9°F5.5°C 32.9°F0.5°C 70% 5.0 mph NW8.0 kmh NW 16.0 mph25.7 kmh 29.61 in1002.7 mb 0.00 in0.0 mm 0.00 in0.0 mm 0.01 in0.3 mm
07:10 AM 41.9°F5.5°C 32.9°F0.5°C 70% 5.0 mph NW8.0 kmh NW 15.0 mph24.1 kmh 29.61 in1002.7 mb 0.00 in0.0 mm 0.00 in0.0 mm 0.01 in0.3 mm
07:15 AM 42.1°F5.6°C 32.9°F0.5°C 70% 5.0 mph WNW8.0 kmh WNW 15.0 mph24.1 kmh 29.62 in1003.0 mb 0.00 in0.0 mm 0.00 in0.0 mm 0.01 in0.3 mm
07:20 AM 42.1°F5.6°C 32.5°F0.3°C 69% 6.0 mph WNW9.7 kmh WNW 18.0 mph29.0 kmh 29.62 in1003.0 mb 0.00 in0.0 mm 0.00 in0.0 mm 0.01 in0.3 mm
07:25 AM 42.1°F5.6°C 33.1°F0.6°C 70% 6.0 mph NW9.7 kmh NW 18.0 mph29.0 kmh 29.63 in1003.4 mb 0.00 in0.0 mm 0.00 in0.0 mm 0.01 in0.3 mm
07:30 AM 42.3°F5.7°C 33.1°F0.6°C 70% 6.0 mph WNW9.7 kmh WNW 17.0 mph27.4 kmh 29.62 in1003.0 mb 0.00 in0.0 mm 0.00 in0.0 mm 0.01 in0.3 mm
07:35 AM 42.3°F5.7°C 32.7°F0.4°C 69% 6.0 mph WNW9.7 kmh WNW 19.0 mph30.6 kmh 29.63 in1003.4 mb 0.00 in0.0 mm 0.00 in0.0 mm 0.01 in0.3 mm
07:40 AM 42.3°F5.7°C 32.7°F0.4°C 69% 7.0 mph NW11.3 kmh NW 22.0 mph35.4 kmh 29.63 in1003.4 mb 0.00 in0.0 mm 0.00 in0.0 mm 0.01 in0.3 mm
07:45 AM 42.3°F5.7°C 33.1°F0.6°C 70% 6.0 mph WNW9.7 kmh WNW 22.0 mph35.4 kmh 29.63 in1003.4 mb 0.00 in0.0 mm 0.00 in0.0 mm 0.01 in0.3 mm
07:50 AM 42.3°F5.7°C 33.3°F0.7°C 70% 5.0 mph WNW8.0 kmh WNW 13.0 mph20.9 kmh 29.64 in1003.7 mb 0.00 in0.0 mm 0.00 in0.0 mm 0.01 in0.3 mm
07:55 AM 42.3°F5.7°C 33.1°F0.6°C 70% 5.0 mph NW8.0 kmh NW 17.0 mph27.4 kmh 29.64 in1003.7 mb 0.00 in0.0 mm 0.00 in0.0 mm 0.01 in0.3 mm
08:00 AM 42.3°F5.7°C 33.4°F0.8°C 71% 5.0 mph NW8.0 kmh NW 17.0 mph27.4 kmh 29.64 in1003.7 mb 0.00 in0.0 mm 0.00 in0.0 mm 0.01 in0.3 mm
08:05 AM 42.3°F5.7°C 33.6°F0.9°C 71% 5.0 mph NW8.0 kmh NW 16.0 mph25.7 kmh 29.64 in1003.7 mb 0.00 in0.0 mm 0.00 in0.0 mm 0.01 in0.3 mm
08:10 AM 42.4°F5.8°C 33.8°F1.0°C 71% 4.0 mph NW6.4 kmh NW 19.0 mph30.6 kmh 29.65 in1004.1 mb 0.00 in0.0 mm 0.00 in0.0 mm 0.01 in0.3 mm
08:15 AM 42.4°F5.8°C 33.4°F0.8°C 70% 5.0 mph NW8.0 kmh NW 20.0 mph32.2 kmh 29.65 in1004.1 mb 0.00 in0.0 mm 0.00 in0.0 mm 0.01 in0.3 mm
08:20 AM 42.4°F5.8°C 33.3°F0.7°C 70% 6.0 mph WNW9.7 kmh WNW 20.0 mph32.2 kmh 29.65 in1004.1 mb 0.00 in0.0 mm 0.00 in0.0 mm 0.01 in0.3 mm
08:25 AM 42.4°F5.8°C 33.4°F0.8°C 70% 7.0 mph WNW11.3 kmh WNW 17.0 mph27.4 kmh 29.66 in1004.4 mb 0.00 in0.0 mm 0.00 in0.0 mm 0.01 in0.3 mm
08:30 AM 42.6°F5.9°C 33.4°F0.8°C 70% 6.0 mph NW9.7 kmh NW 18.0 mph29.0 kmh 29.66 in1004.4 mb 0.00 in0.0 mm 0.00 in0.0 mm 0.01 in0.3 mm
08:35 AM 42.6°F5.9°C 33.3°F0.7°C 69% 7.0 mph NW11.3 kmh NW 18.0 mph29.0 kmh 29.66 in1004.4 mb 0.00 in0.0 mm 0.00 in0.0 mm 0.01 in0.3 mm
08:40 AM 43.0°F6.1°C 33.8°F1.0°C 70% 8.0 mph NW12.9 kmh NW 22.0 mph35.4 kmh 29.67 in1004.7 mb 0.00 in0.0 mm 0.00 in0.0 mm 0.01 in0.3 mm
08:45 AM 43.0°F6.1°C 33.4°F0.8°C 69% 7.0 mph NW11.3 kmh NW 22.0 mph35.4 kmh 29.67 in1004.7 mb 0.00 in0.0 mm 0.00 in0.0 mm 0.01 in0.3 mm
08:50 AM 43.2°F6.2°C 33.6°F0.9°C 69% 7.0 mph NW11.3 kmh NW 24.0 mph38.6 kmh 29.68 in1005.1 mb 0.00 in0.0 mm 0.00 in0.0 mm 0.01 in0.3 mm
08:55 AM 43.0°F6.1°C 33.4°F0.8°C 69% 8.0 mph NW12.9 kmh NW 26.0 mph41.8 kmh 29.68 in1005.1 mb 0.00 in0.0 mm 0.00 in0.0 mm 0.01 in0.3 mm
09:00 AM 43.2°F6.2°C 33.8°F1.0°C 69% 7.0 mph NW11.3 kmh NW 26.0 mph41.8 kmh 29.68 in1005.1 mb 0.00 in0.0 mm 0.00 in0.0 mm 0.01 in0.3 mm
09:05 AM 43.2°F6.2°C 33.8°F1.0°C 69% 6.0 mph NW9.7 kmh NW 20.0 mph32.2 kmh 29.68 in1005.1 mb 0.00 in0.0 mm 0.00 in0.0 mm 0.01 in0.3 mm
09:10 AM 43.2°F6.2°C 33.8°F1.0°C 69% 6.0 mph NW9.7 kmh NW 16.0 mph25.7 kmh 29.68 in1005.1 mb 0.00 in0.0 mm 0.00 in0.0 mm 0.01 in0.3 mm
09:15 AM 43.2°F6.2°C 33.3°F0.7°C 68% 7.0 mph NW11.3 kmh NW 19.0 mph30.6 kmh 29.69 in1005.4 mb 0.00 in0.0 mm 0.00 in0.0 mm 0.01 in0.3 mm
09:20 AM 43.2°F6.2°C 33.3°F0.7°C 68% 7.0 mph NW11.3 kmh NW 19.0 mph30.6 kmh 29.69 in1005.4 mb 0.00 in0.0 mm 0.00 in0.0 mm 0.01 in0.3 mm
09:25 AM 43.2°F6.2°C 33.8°F1.0°C 69% 6.0 mph WNW9.7 kmh WNW 18.0 mph29.0 kmh 29.70 in1005.8 mb 0.00 in0.0 mm 0.00 in0.0 mm 0.01 in0.3 mm
09:30 AM 43.2°F6.2°C 33.8°F1.0°C 69% 6.0 mph WNW9.7 kmh WNW 15.0 mph24.1 kmh 29.69 in1005.4 mb 0.00 in0.0 mm 0.00 in0.0 mm 0.01 in0.3 mm
09:35 AM 43.2°F6.2°C 33.3°F0.7°C 68% 6.0 mph NW9.7 kmh NW 24.0 mph38.6 kmh 29.69 in1005.4 mb 0.00 in0.0 mm 0.00 in0.0 mm 0.01 in0.3 mm
09:40 AM 43.3°F6.3°C 33.8°F1.0°C 69% 6.0 mph NW9.7 kmh NW 24.0 mph38.6 kmh 29.70 in1005.8 mb 0.00 in0.0 mm 0.00 in0.0 mm 0.01 in0.3 mm
09:45 AM 43.5°F6.4°C 33.6°F0.9°C 68% 5.0 mph NW8.0 kmh NW 22.0 mph35.4 kmh 29.70 in1005.8 mb 0.00 in0.0 mm 0.00 in0.0 mm 0.01 in0.3 mm
09:50 AM 43.5°F6.4°C 33.6°F0.9°C 68% 7.0 mph NW11.3 kmh NW 22.0 mph35.4 kmh 29.70 in1005.8 mb 0.00 in0.0 mm 0.00 in0.0 mm 0.01 in0.3 mm
09:55 AM 43.5°F6.4°C 33.4°F0.8°C 67% 7.0 mph NW11.3 kmh NW 21.0 mph33.8 kmh 29.70 in1005.8 mb 0.00 in0.0 mm 0.00 in0.0 mm 0.01 in0.3 mm
10:00 AM 43.7°F6.5°C 33.4°F0.8°C 67% 7.0 mph NW11.3 kmh NW 21.0 mph33.8 kmh 29.70 in1005.8 mb 0.00 in0.0 mm 0.00 in0.0 mm 0.01 in0.3 mm
10:05 AM 43.9°F6.6°C 33.3°F0.7°C 66% 8.0 mph WNW12.9 kmh WNW 21.0 mph33.8 kmh 29.70 in1005.8 mb 0.00 in0.0 mm 0.00 in0.0 mm 0.01 in0.3 mm
10:10 AM 44.1°F6.7°C 33.4°F0.8°C 66% 6.0 mph WNW9.7 kmh WNW 19.0 mph30.6 kmh 29.71 in1006.1 mb 0.00 in0.0 mm 0.00 in0.0 mm 0.01 in0.3 mm
10:15 AM 44.2°F6.8°C 33.6°F0.9°C 66% 7.0 mph NW11.3 kmh NW 19.0 mph30.6 kmh 29.71 in1006.1 mb 0.00 in0.0 mm 0.00 in0.0 mm 0.01 in0.3 mm
10:20 AM 44.4°F6.9°C 33.4°F0.8°C 65% 6.0 mph NW9.7 kmh NW 21.0 mph33.8 kmh 29.71 in1006.1 mb 0.00 in0.0 mm 0.00 in0.0 mm 0.01 in0.3 mm
10:25 AM 44.8°F7.1°C 34.3°F1.3°C 67% 6.0 mph NW9.7 kmh NW 21.0 mph33.8 kmh 29.71 in1006.1 mb 0.00 in0.0 mm 0.00 in0.0 mm 0.01 in0.3 mm
10:30 AM 44.8°F7.1°C 34.2°F1.2°C 66% 6.0 mph WNW9.7 kmh WNW 16.0 mph25.7 kmh 29.71 in1006.1 mb 0.00 in0.0 mm 0.00 in0.0 mm 0.01 in0.3 mm
10:35 AM 45.0°F7.2°C 33.8°F1.0°C 65% 7.0 mph WNW11.3 kmh WNW 23.0 mph37.0 kmh 29.71 in1006.1 mb 0.00 in0.0 mm 0.00 in0.0 mm 0.01 in0.3 mm
10:40 AM 44.4°F6.9°C 33.8°F1.0°C 66% 7.0 mph WNW11.3 kmh WNW 23.0 mph37.0 kmh 29.72 in1006.4 mb 0.00 in0.0 mm 0.00 in0.0 mm 0.01 in0.3 mm
10:45 AM 44.4°F6.9°C 33.8°F1.0°C 66% 8.0 mph WNW12.9 kmh WNW 20.0 mph32.2 kmh 29.72 in1006.4 mb 0.00 in0.0 mm 0.00 in0.0 mm 0.01 in0.3 mm
10:50 AM 44.8°F7.1°C 33.3°F0.7°C 64% 7.0 mph NW11.3 kmh NW 20.0 mph32.2 kmh 29.73 in1006.8 mb 0.00 in0.0 mm 0.00 in0.0 mm 0.01 in0.3 mm
10:55 AM 44.4°F6.9°C 33.1°F0.6°C 64% 7.0 mph NW11.3 kmh NW 17.0 mph27.4 kmh 29.73 in1006.8 mb 0.00 in0.0 mm 0.00 in0.0 mm 0.01 in0.3 mm
11:00 AM 44.6°F7.0°C 33.6°F0.9°C 65% 7.0 mph NW11.3 kmh NW 17.0 mph27.4 kmh 29.73 in1006.8 mb 0.00 in0.0 mm 0.00 in0.0 mm 0.01 in0.3 mm
11:05 AM 44.8°F7.1°C 33.4°F0.8°C 64% 6.0 mph WNW9.7 kmh WNW 16.0 mph25.7 kmh 29.73 in1006.8 mb 0.00 in0.0 mm 0.00 in0.0 mm 0.01 in0.3 mm
11:10 AM 44.8°F7.1°C 33.8°F1.0°C 65% 6.0 mph WNW9.7 kmh WNW 18.0 mph29.0 kmh 29.73 in1006.8 mb 0.00 in0.0 mm 0.00 in0.0 mm 0.01 in0.3 mm
11:15 AM 45.3°F7.4°C 34.2°F1.2°C 65% 5.0 mph NW8.0 kmh NW 20.0 mph32.2 kmh 29.73 in1006.8 mb 0.00 in0.0 mm 0.00 in0.0 mm 0.01 in0.3 mm
11:20 AM 45.5°F7.5°C 34.0°F1.1°C 64% 4.0 mph NW6.4 kmh NW 20.0 mph32.2 kmh 29.73 in1006.8 mb 0.00 in0.0 mm 0.00 in0.0 mm 0.01 in0.3 mm
11:25 AM 45.5°F7.5°C 34.3°F1.3°C 65% 5.0 mph WNW8.0 kmh WNW 13.0 mph20.9 kmh 29.74 in1007.1 mb 0.00 in0.0 mm 0.00 in0.0 mm 0.01 in0.3 mm
11:30 AM 45.7°F7.6°C 34.5°F1.4°C 65% 6.0 mph WNW9.7 kmh WNW 19.0 mph30.6 kmh 29.74 in1007.1 mb 0.00 in0.0 mm 0.00 in0.0 mm 0.01 in0.3 mm
11:35 AM 46.2°F7.9°C 34.7°F1.5°C 64% 5.0 mph WNW8.0 kmh WNW 19.0 mph30.6 kmh 29.74 in1007.1 mb 0.00 in0.0 mm 0.00 in0.0 mm 0.01 in0.3 mm
11:40 AM 46.0°F7.8°C 34.5°F1.4°C 64% 6.0 mph WNW9.7 kmh WNW 16.0 mph25.7 kmh 29.74 in1007.1 mb 0.00 in0.0 mm 0.00 in0.0 mm 0.01 in0.3 mm
11:45 AM 46.0°F7.8°C 34.5°F1.4°C 64% 6.0 mph NW9.7 kmh NW 15.0 mph24.1 kmh 29.74 in1007.1 mb 0.00 in0.0 mm 0.00 in0.0 mm 0.01 in0.3 mm
11:50 AM 46.2°F7.9°C 34.3°F1.3°C 63% 4.0 mph NW6.4 kmh NW 14.0 mph22.5 kmh 29.74 in1007.1 mb 0.00 in0.0 mm 0.00 in0.0 mm 0.01 in0.3 mm
11:55 AM 46.4°F8.0°C 34.5°F1.4°C 63% 4.0 mph NW6.4 kmh NW 13.0 mph20.9 kmh 29.74 in1007.1 mb 0.00 in0.0 mm 0.00 in0.0 mm 0.01 in0.3 mm
12:00 PM 46.4°F8.0°C 34.2°F1.2°C 62% 5.0 mph NW8.0 kmh NW 18.0 mph29.0 kmh 29.74 in1007.1 mb 0.00 in0.0 mm 0.00 in0.0 mm 0.01 in0.3 mm
12:05 PM 46.4°F8.0°C 34.2°F1.2°C 62% 5.0 mph WNW8.0 kmh WNW 18.0 mph29.0 kmh 29.74 in1007.1 mb 0.00 in0.0 mm 0.00 in0.0 mm 0.01 in0.3 mm
12:10 PM 46.6°F8.1°C 33.8°F1.0°C 61% 6.0 mph WNW9.7 kmh WNW 14.0 mph22.5 kmh 29.74 in1007.1 mb 0.00 in0.0 mm 0.00 in0.0 mm 0.01 in0.3 mm
12:15 PM 46.9°F8.3°C 34.2°F1.2°C 61% 5.0 mph NW8.0 kmh NW 13.0 mph20.9 kmh 29.74 in1007.1 mb 0.00 in0.0 mm 0.00 in0.0 mm 0.01 in0.3 mm
12:20 PM 46.8°F8.2°C 34.5°F1.4°C 62% 4.0 mph WNW6.4 kmh WNW 13.0 mph20.9 kmh 29.74 in1007.1 mb 0.00 in0.0 mm 0.00 in0.0 mm 0.01 in0.3 mm
12:25 PM 46.9°F8.3°C 34.2°F1.2°C 61% 4.0 mph W6.4 kmh W 16.0 mph25.7 kmh 29.74 in1007.1 mb 0.00 in0.0 mm 0.00 in0.0 mm 0.01 in0.3 mm
12:30 PM 46.9°F8.3°C 33.8°F1.0°C 60% 4.0 mph W6.4 kmh W 16.0 mph25.7 kmh 29.74 in1007.1 mb 0.00 in0.0 mm 0.00 in0.0 mm 0.01 in0.3 mm
12:35 PM 46.8°F8.2°C 34.0°F1.1°C 61% 5.0 mph WNW8.0 kmh WNW 17.0 mph27.4 kmh 29.74 in1007.1 mb 0.00 in0.0 mm 0.00 in0.0 mm 0.01 in0.3 mm
12:40 PM 47.3°F8.5°C 34.5°F1.4°C 61% 6.0 mph WNW9.7 kmh WNW 17.0 mph27.4 kmh 29.74 in1007.1 mb 0.00 in0.0 mm 0.00 in0.0 mm 0.01 in0.3 mm
12:45 PM 47.8°F8.8°C 35.1°F1.7°C 61% 5.0 mph WNW8.0 kmh WNW 13.0 mph20.9 kmh 29.74 in1007.1 mb 0.00 in0.0 mm 0.00 in0.0 mm 0.01 in0.3 mm
12:50 PM 48.4°F9.1°C 34.7°F1.5°C 59% 5.0 mph WNW8.0 kmh WNW 16.0 mph25.7 kmh 29.73 in1006.8 mb 0.00 in0.0 mm 0.00 in0.0 mm 0.01 in0.3 mm
12:55 PM 48.0°F8.9°C 34.5°F1.4°C 59% 6.0 mph WNW9.7 kmh WNW 16.0 mph25.7 kmh 29.74 in1007.1 mb 0.00 in0.0 mm 0.00 in0.0 mm 0.01 in0.3 mm
01:00 PM 48.7°F9.3°C 35.1°F1.7°C 59% 6.0 mph WNW9.7 kmh WNW 16.0 mph25.7 kmh 29.73 in1006.8 mb 0.00 in0.0 mm 0.00 in0.0 mm 0.01 in0.3 mm
01:05 PM 48.9°F9.4°C 34.7°F1.5°C 58% 5.0 mph W8.0 kmh W 13.0 mph20.9 kmh 29.74 in1007.1 mb 0.00 in0.0 mm 0.00 in0.0 mm 0.01 in0.3 mm
01:10 PM 48.9°F9.4°C 34.3°F1.3°C 57% 6.0 mph WNW9.7 kmh WNW 14.0 mph22.5 kmh 29.74 in1007.1 mb 0.00 in0.0 mm 0.00 in0.0 mm 0.01 in0.3 mm
01:15 PM 49.3°F9.6°C 34.2°F1.2°C 56% 6.0 mph WNW9.7 kmh WNW 14.0 mph22.5 kmh 29.74 in1007.1 mb 0.00 in0.0 mm 0.00 in0.0 mm 0.01 in0.3 mm
01:20 PM 49.8°F9.9°C 34.3°F1.3°C 55% 6.0 mph WNW9.7 kmh WNW 14.0 mph22.5 kmh 29.73 in1006.8 mb 0.00 in0.0 mm 0.00 in0.0 mm 0.01 in0.3 mm
01:25 PM 49.6°F9.8°C 33.8°F1.0°C 54% 6.0 mph WNW9.7 kmh WNW 17.0 mph27.4 kmh 29.74 in1007.1 mb 0.00 in0.0 mm 0.00 in0.0 mm 0.01 in0.3 mm
01:30 PM 49.8°F9.9°C 34.9°F1.6°C 56% 6.0 mph WNW9.7 kmh WNW 17.0 mph27.4 kmh 29.74 in1007.1 mb 0.00 in0.0 mm 0.00 in0.0 mm 0.01 in0.3 mm
01:35 PM 50.0°F10.0°C 34.5°F1.4°C 55% 6.0 mph WNW9.7 kmh WNW 17.0 mph27.4 kmh 29.74 in1007.1 mb 0.00 in0.0 mm 0.00 in0.0 mm 0.01 in0.3 mm
01:40 PM 50.2°F10.1°C 34.5°F1.4°C 55% 5.0 mph WNW8.0 kmh WNW 17.0 mph27.4 kmh 29.74 in1007.1 mb 0.00 in0.0 mm 0.00 in0.0 mm 0.01 in0.3 mm
01:45 PM 50.2°F10.1°C 34.2°F1.2°C 54% 5.0 mph WNW8.0 kmh WNW 17.0 mph27.4 kmh 29.75 in1007.5 mb 0.00 in0.0 mm 0.00 in0.0 mm 0.01 in0.3 mm
01:50 PM 50.2°F10.1°C 34.2°F1.2°C 54% 5.0 mph WSW8.0 kmh WSW 21.0 mph33.8 kmh 29.75 in1007.5 mb 0.00 in0.0 mm 0.00 in0.0 mm 0.01 in0.3 mm
01:55 PM 49.8°F9.9°C 34.0°F1.1°C 54% 6.0 mph WSW9.7 kmh WSW 21.0 mph33.8 kmh 29.74 in1007.1 mb 0.00 in0.0 mm 0.00 in0.0 mm 0.01 in0.3 mm
02:00 PM 50.2°F10.1°C 34.5°F1.4°C 55% 5.0 mph WNW8.0 kmh WNW 15.0 mph24.1 kmh 29.74 in1007.1 mb 0.00 in0.0 mm 0.00 in0.0 mm 0.01 in0.3 mm
02:05 PM 50.2°F10.1°C 34.2°F1.2°C 54% 5.0 mph WNW8.0 kmh WNW 15.0 mph24.1 kmh 29.74 in1007.1 mb 0.00 in0.0 mm 0.00 in0.0 mm 0.01 in0.3 mm
02:10 PM 49.8°F9.9°C 34.0°F1.1°C 54% 5.0 mph W8.0 kmh W 17.0 mph27.4 kmh 29.75 in1007.5 mb 0.00 in0.0 mm 0.00 in0.0 mm 0.01 in0.3 mm
02:15 PM 49.8°F9.9°C 34.3°F1.3°C 55% 5.0 mph WNW8.0 kmh WNW 17.0 mph27.4 kmh 29.75 in1007.5 mb 0.00 in0.0 mm 0.00 in0.0 mm 0.01 in0.3 mm
02:20 PM 49.8°F9.9°C 34.3°F1.3°C 55% 4.0 mph W6.4 kmh W 13.0 mph20.9 kmh 29.74 in1007.1 mb 0.00 in0.0 mm 0.00 in0.0 mm 0.01 in0.3 mm
02:25 PM 49.6°F9.8°C 34.2°F1.2°C 55% 4.0 mph WNW6.4 kmh WNW 19.0 mph30.6 kmh 29.75 in1007.5 mb 0.00 in0.0 mm 0.00 in0.0 mm 0.01 in0.3 mm
02:30 PM 49.6°F9.8°C 33.6°F0.9°C 54% 5.0 mph WNW8.0 kmh WNW 19.0 mph30.6 kmh 29.75 in1007.5 mb 0.00 in0.0 mm 0.00 in0.0 mm 0.01 in0.3 mm
02:35 PM 49.5°F9.7°C 33.4°F0.8°C 54% 5.0 mph WNW8.0 kmh WNW 13.0 mph20.9 kmh 29.75 in1007.5 mb 0.00 in0.0 mm 0.00 in0.0 mm 0.01 in0.3 mm
02:40 PM 49.5°F9.7°C 34.5°F1.4°C 56% 5.0 mph WNW8.0 kmh WNW 13.0 mph20.9 kmh 29.75 in1007.5 mb 0.00 in0.0 mm 0.00 in0.0 mm 0.01 in0.3 mm
02:45 PM 49.5°F9.7°C 34.0°F1.1°C 55% 4.0 mph W6.4 kmh W 12.0 mph19.3 kmh 29.75 in1007.5 mb 0.00 in0.0 mm 0.00 in0.0 mm 0.01 in0.3 mm
02:50 PM 49.3°F9.6°C 33.8°F1.0°C 55% 3.0 mph W4.8 kmh W 15.0 mph24.1 kmh 29.74 in1007.1 mb 0.00 in0.0 mm 0.00 in0.0 mm 0.01 in0.3 mm
02:55 PM 49.5°F9.7°C 34.5°F1.4°C 56% 3.0 mph WNW4.8 kmh WNW 15.0 mph24.1 kmh 29.75 in1007.5 mb 0.00 in0.0 mm 0.00 in0.0 mm 0.01 in0.3 mm
03:00 PM 49.5°F9.7°C 34.5°F1.4°C 56% 3.0 mph WNW4.8 kmh WNW 10.0 mph16.1 kmh 29.75 in1007.5 mb 0.00 in0.0 mm 0.00 in0.0 mm 0.01 in0.3 mm
03:05 PM 49.3°F9.6°C 33.8°F1.0°C 55% 4.0 mph WNW6.4 kmh WNW 12.0 mph19.3 kmh 29.75 in1007.5 mb 0.00 in0.0 mm 0.00 in0.0 mm 0.01 in0.3 mm
03:10 PM 49.1°F9.5°C 34.0°F1.1°C 56% 4.0 mph WNW6.4 kmh WNW 12.0 mph19.3 kmh 29.75 in1007.5 mb 0.00 in0.0 mm 0.00 in0.0 mm 0.01 in0.3 mm
03:15 PM 49.3°F9.6°C 34.5°F1.4°C 57% 4.0 mph NW6.4 kmh NW 14.0 mph22.5 kmh 29.75 in1007.5 mb 0.00 in0.0 mm 0.00 in0.0 mm 0.01 in0.3 mm
03:20 PM 49.1°F9.5°C 34.0°F1.1°C 56% 3.0 mph NW4.8 kmh NW 14.0 mph22.5 kmh 29.75 in1007.5 mb 0.00 in0.0 mm 0.00 in0.0 mm 0.01 in0.3 mm
03:25 PM 48.7°F9.3°C 32.7°F0.4°C 54% 5.0 mph NW8.0 kmh NW 16.0 mph25.7 kmh 29.75 in1007.5 mb 0.00 in0.0 mm 0.00 in0.0 mm 0.01 in0.3 mm
03:30 PM 48.6°F9.2°C 33.1°F0.6°C 55% 5.0 mph NW8.0 kmh NW 16.0 mph25.7 kmh 29.75 in1007.5 mb 0.00 in0.0 mm 0.00 in0.0 mm 0.01 in0.3 mm
03:35 PM 48.6°F9.2°C 33.6°F0.9°C 56% 3.0 mph NW4.8 kmh NW 8.0 mph12.9 kmh 29.75 in1007.5 mb 0.00 in0.0 mm 0.00 in0.0 mm 0.01 in0.3 mm
03:40 PM 48.6°F9.2°C 33.4°F0.8°C 56% 3.0 mph NW4.8 kmh NW 10.0 mph16.1 kmh 29.75 in1007.5 mb 0.00 in0.0 mm 0.00 in0.0 mm 0.01 in0.3 mm
03:45 PM 48.6°F9.2°C 34.0°F1.1°C 57% 3.0 mph NW4.8 kmh NW 10.0 mph16.1 kmh 29.75 in1007.5 mb 0.00 in0.0 mm 0.00 in0.0 mm 0.01 in0.3 mm
03:50 PM 48.4°F9.1°C 33.8°F1.0°C 57% 3.0 mph NW4.8 kmh NW 9.0 mph14.5 kmh 29.75 in1007.5 mb 0.00 in0.0 mm 0.00 in0.0 mm 0.01 in0.3 mm
03:55 PM 48.6°F9.2°C 34.0°F1.1°C 57% 2.0 mph WNW3.2 kmh WNW 8.0 mph12.9 kmh 29.76 in1007.8 mb 0.00 in0.0 mm 0.00 in0.0 mm 0.01 in0.3 mm
04:00 PM 48.4°F9.1°C 33.8°F1.0°C 57% 2.0 mph WNW3.2 kmh WNW 8.0 mph12.9 kmh 29.76 in1007.8 mb 0.00 in0.0 mm 0.00 in0.0 mm 0.01 in0.3 mm
04:05 PM 48.4°F9.1°C 33.8°F1.0°C 57% 2.0 mph NW3.2 kmh NW 7.0 mph11.3 kmh 29.76 in1007.8 mb 0.00 in0.0 mm 0.00 in0.0 mm 0.01 in0.3 mm
04:10 PM 48.2°F9.0°C 34.2°F1.2°C 58% 3.0 mph NW4.8 kmh NW 9.0 mph14.5 kmh 29.76 in1007.8 mb 0.00 in0.0 mm 0.00 in0.0 mm 0.01 in0.3 mm
04:15 PM 48.0°F8.9°C 34.0°F1.1°C 58% 2.0 mph NW3.2 kmh NW 9.0 mph14.5 kmh 29.76 in1007.8 mb 0.00 in0.0 mm 0.00 in0.0 mm 0.01 in0.3 mm
04:20 PM 48.0°F8.9°C 34.5°F1.4°C 59% 2.0 mph NW3.2 kmh NW 8.0 mph12.9 kmh 29.76 in1007.8 mb 0.00 in0.0 mm 0.00 in0.0 mm 0.01 in0.3 mm
04:25 PM 48.0°F8.9°C 34.3°F1.3°C 59% 1.0 mph NW1.6 kmh NW 7.0 mph11.3 kmh 29.76 in1007.8 mb 0.00 in0.0 mm 0.00 in0.0 mm 0.01 in0.3 mm
04:30 PM 47.8°F8.8°C 34.3°F1.3°C 59% 1.0 mph NW1.6 kmh NW 6.0 mph9.7 kmh 29.76 in1007.8 mb 0.00 in0.0 mm 0.00 in0.0 mm 0.01 in0.3 mm
04:35 PM 47.8°F8.8°C 34.2°F1.2°C 59% 1.0 mph NW1.6 kmh NW 6.0 mph9.7 kmh 29.77 in1008.1 mb 0.00 in0.0 mm 0.00 in0.0 mm 0.01 in0.3 mm
04:40 PM 47.7°F8.7°C 34.5°F1.4°C 60% 2.0 mph NW3.2 kmh NW 6.0 mph9.7 kmh 29.77 in1008.1 mb 0.00 in0.0 mm 0.00 in0.0 mm 0.01 in0.3 mm
04:45 PM 47.7°F8.7°C 34.3°F1.3°C 60% 2.0 mph NW3.2 kmh NW 8.0 mph12.9 kmh 29.77 in1008.1 mb 0.00 in0.0 mm 0.00 in0.0 mm 0.01 in0.3 mm
04:50 PM 47.5°F8.6°C 34.2°F1.2°C 60% 2.0 mph NW3.2 kmh NW 8.0 mph12.9 kmh 29.77 in1008.1 mb 0.00 in0.0 mm 0.00 in0.0 mm 0.01 in0.3 mm
04:55 PM 47.5°F8.6°C 34.7°F1.5°C 61% 2.0 mph NW3.2 kmh NW 7.0 mph11.3 kmh 29.76 in1007.8 mb 0.00 in0.0 mm 0.00 in0.0 mm 0.01 in0.3 mm
05:00 PM 47.3°F8.5°C 34.5°F1.4°C 61% 1.0 mph NW1.6 kmh NW 5.0 mph8.0 kmh 29.76 in1007.8 mb 0.00 in0.0 mm 0.00 in0.0 mm 0.01 in0.3 mm
05:05 PM 47.3°F8.5°C 34.5°F1.4°C 61% 1.0 mph NW1.6 kmh NW 5.0 mph8.0 kmh 29.76 in1007.8 mb 0.00 in0.0 mm 0.00 in0.0 mm 0.01 in0.3 mm
05:10 PM 47.1°F8.4°C 34.9°F1.6°C 62% 1.0 mph NW1.6 kmh NW 2.0 mph3.2 kmh 29.76 in1007.8 mb 0.00 in0.0 mm 0.00 in0.0 mm 0.01 in0.3 mm
05:15 PM 47.1°F8.4°C 34.7°F1.5°C 62% Calm Calm 2.0 mph3.2 kmh 29.76 in1007.8 mb 0.00 in0.0 mm 0.00 in0.0 mm 0.01 in0.3 mm
05:20 PM 47.1°F8.4°C 35.1°F1.7°C 63% Calm Calm 1.0 mph1.6 kmh 29.76 in1007.8 mb 0.00 in0.0 mm 0.00 in0.0 mm 0.01 in0.3 mm
05:25 PM 46.9°F8.3°C 34.9°F1.6°C 63% Calm Calm 1.0 mph1.6 kmh 29.76 in1007.8 mb 0.00 in0.0 mm 0.00 in0.0 mm 0.01 in0.3 mm
05:30 PM 46.8°F8.2°C 34.9°F1.6°C 63% Calm Calm 4.0 mph6.4 kmh 29.76 in1007.8 mb 0.00 in0.0 mm 0.00 in0.0 mm 0.01 in0.3 mm
05:35 PM 46.8°F8.2°C 34.9°F1.6°C 63% 1.0 mph W1.6 kmh W 6.0 mph9.7 kmh 29.77 in1008.1 mb 0.00 in0.0 mm 0.00 in0.0 mm 0.01 in0.3 mm
05:40 PM 46.8°F8.2°C 34.9°F1.6°C 63% 1.0 mph WSW1.6 kmh WSW 6.0 mph9.7 kmh 29.77 in1008.1 mb 0.00 in0.0 mm 0.00 in0.0 mm 0.01 in0.3 mm
05:45 PM 46.8°F8.2°C 35.2°F1.8°C 64% Calm Calm 4.0 mph6.4 kmh 29.77 in1008.1 mb 0.00 in0.0 mm 0.00 in0.0 mm 0.01 in0.3 mm
05:50 PM 46.6°F8.1°C 35.1°F1.7°C 64% Calm Calm 3.0 mph4.8 kmh 29.77 in1008.1 mb 0.00 in0.0 mm 0.00 in0.0 mm 0.01 in0.3 mm
05:55 PM 46.4°F8.0°C 35.2°F1.8°C 65% Calm Calm 3.0 mph4.8 kmh 29.77 in1008.1 mb 0.00 in0.0 mm 0.00 in0.0 mm 0.01 in0.3 mm
06:00 PM 46.4°F8.0°C 34.9°F1.6°C 64% 2.0 mph SW3.2 kmh SW 13.0 mph20.9 kmh 29.77 in1008.1 mb 0.00 in0.0 mm 0.00 in0.0 mm 0.01 in0.3 mm
06:05 PM 46.4°F8.0°C 34.5°F1.4°C 63% 4.0 mph WSW6.4 kmh WSW 13.0 mph20.9 kmh 29.77 in1008.1 mb 0.00 in0.0 mm 0.00 in0.0 mm 0.01 in0.3 mm
06:10 PM 46.4°F8.0°C 34.2°F1.2°C 62% 3.0 mph WSW4.8 kmh WSW 10.0 mph16.1 kmh 29.77 in1008.1 mb 0.00 in0.0 mm 0.00 in0.0 mm 0.01 in0.3 mm
06:15 PM 46.0°F7.8°C 34.5°F1.4°C 64% 4.0 mph WSW6.4 kmh WSW 10.0 mph16.1 kmh 29.77 in1008.1 mb 0.00 in0.0 mm 0.00 in0.0 mm 0.01 in0.3 mm
06:20 PM 45.7°F7.6°C 34.5°F1.4°C 65% 5.0 mph WSW8.0 kmh WSW 13.0 mph20.9 kmh 29.78 in1008.5 mb 0.00 in0.0 mm 0.00 in0.0 mm 0.01 in0.3 mm
06:25 PM 45.3°F7.4°C 34.5°F1.4°C 66% 5.0 mph WSW8.0 kmh WSW 13.0 mph20.9 kmh 29.78 in1008.5 mb 0.00 in0.0 mm 0.00 in0.0 mm 0.01 in0.3 mm
06:30 PM 45.1°F7.3°C 34.9°F1.6°C 67% 4.0 mph WSW6.4 kmh WSW 11.0 mph17.7 kmh 29.79 in1008.8 mb 0.00 in0.0 mm 0.00 in0.0 mm 0.01 in0.3 mm
06:35 PM 44.8°F7.1°C 34.9°F1.6°C 68% 4.0 mph WSW6.4 kmh WSW 10.0 mph16.1 kmh 29.79 in1008.8 mb 0.00 in0.0 mm 0.00 in0.0 mm 0.01 in0.3 mm
06:40 PM 44.6°F7.0°C 35.1°F1.7°C 69% 4.0 mph SW6.4 kmh SW 10.0 mph16.1 kmh 29.79 in1008.8 mb 0.00 in0.0 mm 0.00 in0.0 mm 0.01 in0.3 mm
06:45 PM 44.4°F6.9°C 35.6°F2.0°C 71% 3.0 mph WSW4.8 kmh WSW 10.0 mph16.1 kmh 29.79 in1008.8 mb 0.00 in0.0 mm 0.00 in0.0 mm 0.01 in0.3 mm
06:50 PM 44.2°F6.8°C 35.8°F2.1°C 72% 2.0 mph WSW3.2 kmh WSW 8.0 mph12.9 kmh 29.79 in1008.8 mb 0.00 in0.0 mm 0.00 in0.0 mm 0.01 in0.3 mm
06:55 PM 44.1°F6.7°C 36.0°F2.2°C 73% 3.0 mph WSW4.8 kmh WSW 9.0 mph14.5 kmh 29.79 in1008.8 mb 0.00 in0.0 mm 0.00 in0.0 mm 0.01 in0.3 mm
07:00 PM 43.9°F6.6°C 36.1°F2.3°C 74% 3.0 mph WSW4.8 kmh WSW 9.0 mph14.5 kmh 29.79 in1008.8 mb 0.00 in0.0 mm 0.00 in0.0 mm 0.01 in0.3 mm
07:05 PM 43.9°F6.6°C 36.7°F2.6°C 76% 3.0 mph WSW4.8 kmh WSW 7.0 mph11.3 kmh 29.79 in1008.8 mb 0.00 in0.0 mm 0.00 in0.0 mm 0.01 in0.3 mm
07:10 PM 43.5°F6.4°C 36.9°F2.7°C 77% 3.0 mph WSW4.8 kmh WSW 8.0 mph12.9 kmh 29.79 in1008.8 mb 0.00 in0.0 mm 0.00 in0.0 mm 0.01 in0.3 mm
07:15 PM 43.5°F6.4°C 37.0°F2.8°C 78% 2.0 mph WSW3.2 kmh WSW 8.0 mph12.9 kmh 29.79 in1008.8 mb 0.00 in0.0 mm 0.00 in0.0 mm 0.01 in0.3 mm
07:20 PM 43.3°F6.3°C 37.0°F2.8°C 78% 2.0 mph WSW3.2 kmh WSW 8.0 mph12.9 kmh 29.79 in1008.8 mb 0.00 in0.0 mm 0.00 in0.0 mm 0.01 in0.3 mm
07:25 PM 43.3°F6.3°C 37.2°F2.9°C 79% 2.0 mph WSW3.2 kmh WSW 7.0 mph11.3 kmh 29.79 in1008.8 mb 0.00 in0.0 mm 0.00 in0.0 mm 0.01 in0.3 mm
07:30 PM 43.2°F6.2°C 37.0°F2.8°C 79% 1.0 mph WSW1.6 kmh WSW 6.0 mph9.7 kmh 29.79 in1008.8 mb 0.00 in0.0 mm 0.00 in0.0 mm 0.01 in0.3 mm
07:35 PM 43.2°F6.2°C 37.6°F3.1°C 81% 2.0 mph SW3.2 kmh SW 6.0 mph9.7 kmh 29.78 in1008.5 mb 0.00 in0.0 mm 0.00 in0.0 mm 0.01 in0.3 mm
07:40 PM 42.8°F6.0°C 37.8°F3.2°C 82% 2.0 mph WSW3.2 kmh WSW 7.0 mph11.3 kmh 29.78 in1008.5 mb 0.00 in0.0 mm 0.00 in0.0 mm 0.01 in0.3 mm
07:45 PM 42.6°F5.9°C 37.9°F3.3°C 83% 3.0 mph WSW4.8 kmh WSW 9.0 mph14.5 kmh 29.79 in1008.8 mb 0.00 in0.0 mm 0.00 in0.0 mm 0.01 in0.3 mm
07:50 PM 42.4°F5.8°C 37.9°F3.3°C 84% 3.0 mph WSW4.8 kmh WSW 9.0 mph14.5 kmh 29.79 in1008.8 mb 0.00 in0.0 mm 0.00 in0.0 mm 0.01 in0.3 mm
07:55 PM 42.3°F5.7°C 38.1°F3.4°C 85% 3.0 mph SW4.8 kmh SW 9.0 mph14.5 kmh 29.79 in1008.8 mb 0.00 in0.0 mm 0.00 in0.0 mm 0.01 in0.3 mm
08:00 PM 42.4°F5.8°C 38.5°F3.6°C 86% 4.0 mph SW6.4 kmh SW 10.0 mph16.1 kmh 29.79 in1008.8 mb 0.00 in0.0 mm 0.00 in0.0 mm 0.01 in0.3 mm
08:05 PM 42.3°F5.7°C 38.7°F3.7°C 87% 5.0 mph SW8.0 kmh SW 11.0 mph17.7 kmh 29.79 in1008.8 mb 0.00 in0.0 mm 0.00 in0.0 mm 0.01 in0.3 mm
08:10 PM 42.3°F5.7°C 38.8°F3.8°C 88% 5.0 mph WSW8.0 kmh WSW 11.0 mph17.7 kmh 29.79 in1008.8 mb 0.00 in0.0 mm 0.00 in0.0 mm 0.01 in0.3 mm
08:15 PM 42.1°F5.6°C 38.8°F3.8°C 88% 3.0 mph WSW4.8 kmh WSW 10.0 mph16.1 kmh 29.79 in1008.8 mb 0.00 in0.0 mm 0.00 in0.0 mm 0.01 in0.3 mm
08:20 PM 42.1°F5.6°C 39.0°F3.9°C 89% 2.0 mph SW3.2 kmh SW 7.0 mph11.3 kmh 29.79 in1008.8 mb 0.00 in0.0 mm 0.00 in0.0 mm 0.01 in0.3 mm
08:25 PM 41.9°F5.5°C 39.2°F4.0°C 90% 2.0 mph SW3.2 kmh SW 5.0 mph8.0 kmh 29.79 in1008.8 mb 0.00 in0.0 mm 0.00 in0.0 mm 0.01 in0.3 mm
08:30 PM 41.7°F5.4°C 39.0°F3.9°C 90% 2.0 mph SW3.2 kmh SW 6.0 mph9.7 kmh 29.79 in1008.8 mb 0.00 in0.0 mm 0.00 in0.0 mm 0.01 in0.3 mm
08:35 PM 41.7°F5.4°C 39.4°F4.1°C 91% 3.0 mph SW4.8 kmh SW 10.0 mph16.1 kmh 29.79 in1008.8 mb 0.00 in0.0 mm 0.00 in0.0 mm 0.01 in0.3 mm
08:40 PM 41.7°F5.4°C 39.2°F4.0°C 91% 4.0 mph SW6.4 kmh SW 11.0 mph17.7 kmh 29.79 in1008.8 mb 0.01 in0.3 mm 0.12 in3.0 mm 0.02 in0.5 mm
08:45 PM 41.5°F5.3°C 39.2°F4.0°C 91% 5.0 mph SW8.0 kmh SW 11.0 mph17.7 kmh 29.79 in1008.8 mb 0.01 in0.3 mm 0.00 in0.0 mm 0.02 in0.5 mm
08:50 PM 41.5°F5.3°C 39.4°F4.1°C 92% 4.0 mph SW6.4 kmh SW 10.0 mph16.1 kmh 29.78 in1008.5 mb 0.01 in0.3 mm 0.00 in0.0 mm 0.02 in0.5 mm
08:55 PM 41.5°F5.3°C 39.4°F4.1°C 92% 4.0 mph SW6.4 kmh SW 9.0 mph14.5 kmh 29.78 in1008.5 mb 0.01 in0.3 mm 0.00 in0.0 mm 0.02 in0.5 mm
09:00 PM 41.5°F5.3°C 39.4°F4.1°C 92% 3.0 mph SW4.8 kmh SW 6.0 mph9.7 kmh 29.78 in1008.5 mb 0.01 in0.3 mm 0.00 in0.0 mm 0.02 in0.5 mm
09:05 PM 41.5°F5.3°C 39.4°F4.1°C 92% 2.0 mph SW3.2 kmh SW 5.0 mph8.0 kmh 29.78 in1008.5 mb 0.01 in0.3 mm 0.00 in0.0 mm 0.02 in0.5 mm
09:10 PM 41.5°F5.3°C 39.4°F4.1°C 92% 3.0 mph SW4.8 kmh SW 7.0 mph11.3 kmh 29.78 in1008.5 mb 0.01 in0.3 mm 0.00 in0.0 mm 0.02 in0.5 mm
09:15 PM 41.5°F5.3°C 39.7°F4.3°C 93% 3.0 mph SW4.8 kmh SW 8.0 mph12.9 kmh 29.78 in1008.5 mb 0.01 in0.3 mm 0.00 in0.0 mm 0.02 in0.5 mm
09:20 PM 41.5°F5.3°C 39.7°F4.3°C 93% 4.0 mph SW6.4 kmh SW 8.0 mph12.9 kmh 29.78 in1008.5 mb 0.01 in0.3 mm 0.00 in0.0 mm 0.02 in0.5 mm
09:25 PM 41.5°F5.3°C 39.7°F4.3°C 93% 3.0 mph SW4.8 kmh SW 7.0 mph11.3 kmh 29.78 in1008.5 mb 0.01 in0.3 mm 0.00 in0.0 mm 0.02 in0.5 mm
09:30 PM 41.7°F5.4°C 39.7°F4.3°C 93% 3.0 mph SW4.8 kmh SW 7.0 mph11.3 kmh 29.78 in1008.5 mb 0.01 in0.3 mm 0.00 in0.0 mm 0.02 in0.5 mm
09:35 PM 41.7°F5.4°C 39.7°F4.3°C 93% 3.0 mph SW4.8 kmh SW 7.0 mph11.3 kmh 29.78 in1008.5 mb 0.01 in0.3 mm 0.00 in0.0 mm 0.02 in0.5 mm
09:40 PM 41.7°F5.4°C 39.7°F4.3°C 93% 3.0 mph SW4.8 kmh SW 6.0 mph9.7 kmh 29.78 in1008.5 mb 0.00 in0.0 mm 0.00 in0.0 mm 0.02 in0.5 mm
09:45 PM 41.7°F5.4°C 39.7°F4.3°C 93% 2.0 mph SW3.2 kmh SW 6.0 mph9.7 kmh 29.78 in1008.5 mb 0.00 in0.0 mm 0.00 in0.0 mm 0.02 in0.5 mm
09:50 PM 41.7°F5.4°C 39.7°F4.3°C 93% 3.0 mph SW4.8 kmh SW 7.0 mph11.3 kmh 29.78 in1008.5 mb 0.00 in0.0 mm 0.00 in0.0 mm 0.02 in0.5 mm
09:55 PM 41.7°F5.4°C 39.9°F4.4°C 93% 3.0 mph SW4.8 kmh SW 7.0 mph11.3 kmh 29.78 in1008.5 mb 0.00 in0.0 mm 0.00 in0.0 mm 0.02 in0.5 mm
10:00 PM 41.7°F5.4°C 39.9°F4.4°C 93% 3.0 mph SW4.8 kmh SW 7.0 mph11.3 kmh 29.78 in1008.5 mb 0.00 in0.0 mm 0.00 in0.0 mm 0.02 in0.5 mm
10:05 PM 41.9°F5.5°C 40.1°F4.5°C 93% 2.0 mph SW3.2 kmh SW 6.0 mph9.7 kmh 29.78 in1008.5 mb 0.00 in0.0 mm 0.00 in0.0 mm 0.02 in0.5 mm
10:10 PM 41.7°F5.4°C 40.3°F4.6°C 94% 2.0 mph SW3.2 kmh SW 6.0 mph9.7 kmh 29.78 in1008.5 mb 0.00 in0.0 mm 0.00 in0.0 mm 0.02 in0.5 mm
10:15 PM 41.7°F5.4°C 40.3°F4.6°C 94% 2.0 mph SW3.2 kmh SW 6.0 mph9.7 kmh 29.78 in1008.5 mb 0.00 in0.0 mm 0.00 in0.0 mm 0.02 in0.5 mm
10:20 PM 41.9°F5.5°C 40.3°F4.6°C 94% 1.0 mph SW1.6 kmh SW 4.0 mph6.4 kmh 29.77 in1008.1 mb 0.00 in0.0 mm 0.00 in0.0 mm 0.02 in0.5 mm
10:25 PM 41.9°F5.5°C 40.3°F4.6°C 94% 1.0 mph SW1.6 kmh SW 4.0 mph6.4 kmh 29.77 in1008.1 mb 0.00 in0.0 mm 0.00 in0.0 mm 0.02 in0.5 mm
10:30 PM 41.9°F5.5°C 40.3°F4.6°C 94% 1.0 mph SW1.6 kmh SW 4.0 mph6.4 kmh 29.77 in1008.1 mb 0.00 in0.0 mm 0.00 in0.0 mm 0.02 in0.5 mm
10:35 PM 41.9°F5.5°C 40.3°F4.6°C 94% 2.0 mph SW3.2 kmh SW 4.0 mph6.4 kmh 29.77 in1008.1 mb 0.00 in0.0 mm 0.00 in0.0 mm 0.02 in0.5 mm
10:40 PM 42.1°F5.6°C 40.5°F4.7°C 94% 2.0 mph SW3.2 kmh SW 6.0 mph9.7 kmh 29.77 in1008.1 mb 0.00 in0.0 mm 0.00 in0.0 mm 0.02 in0.5 mm
10:45 PM 42.1°F5.6°C 40.5°F4.7°C 94% 2.0 mph SW3.2 kmh SW 9.0 mph14.5 kmh 29.77 in1008.1 mb 0.00 in0.0 mm 0.00 in0.0 mm 0.02 in0.5 mm
10:50 PM 42.3°F5.7°C 40.6°F4.8°C 94% 3.0 mph SW4.8 kmh SW 9.0 mph14.5 kmh 29.78 in1008.5 mb 0.00 in0.0 mm 0.00 in0.0 mm 0.02 in0.5 mm
10:55 PM 42.3°F5.7°C 40.6°F4.8°C 94% 2.0 mph SW3.2 kmh SW 6.0 mph9.7 kmh 29.77 in1008.1 mb 0.00 in0.0 mm 0.00 in0.0 mm 0.02 in0.5 mm
11:00 PM 42.3°F5.7°C 40.6°F4.8°C 94% 2.0 mph SW3.2 kmh SW 5.0 mph8.0 kmh 29.77 in1008.1 mb 0.00 in0.0 mm 0.00 in0.0 mm 0.02 in0.5 mm
11:05 PM 42.4°F5.8°C 40.8°F4.9°C 94% 2.0 mph SW3.2 kmh SW 6.0 mph9.7 kmh 29.78 in1008.5 mb 0.00 in0.0 mm 0.00 in0.0 mm 0.02 in0.5 mm
11:10 PM 42.4°F5.8°C 40.8°F4.9°C 94% 2.0 mph SW3.2 kmh SW 6.0 mph9.7 kmh 29.78 in1008.5 mb 0.00 in0.0 mm 0.00 in0.0 mm 0.02 in0.5 mm
11:15 PM 42.4°F5.8°C 40.8°F4.9°C 94% 2.0 mph SW3.2 kmh SW 5.0 mph8.0 kmh 29.78 in1008.5 mb 0.00 in0.0 mm 0.00 in0.0 mm 0.02 in0.5 mm
11:20 PM 42.6°F5.9°C 41.0°F5.0°C 94% 2.0 mph SW3.2 kmh SW 4.0 mph6.4 kmh 29.78 in1008.5 mb 0.00 in0.0 mm 0.00 in0.0 mm 0.02 in0.5 mm
11:25 PM 42.8°F6.0°C 41.2°F5.1°C 94% 1.0 mph SW1.6 kmh SW 6.0 mph9.7 kmh 29.78 in1008.5 mb 0.00 in0.0 mm 0.00 in0.0 mm 0.02 in0.5 mm
11:30 PM 43.0°F6.1°C 41.4°F5.2°C 94% 2.0 mph SW3.2 kmh SW 7.0 mph11.3 kmh 29.78 in1008.5 mb 0.00 in0.0 mm 0.00 in0.0 mm 0.02 in0.5 mm
11:35 PM 43.2°F6.2°C 41.5°F5.3°C 94% 2.0 mph SW3.2 kmh SW 7.0 mph11.3 kmh 29.77 in1008.1 mb 0.00 in0.0 mm 0.00 in0.0 mm 0.02 in0.5 mm
11:40 PM 43.2°F6.2°C 41.5°F5.3°C 94% 2.0 mph WSW3.2 kmh WSW 6.0 mph9.7 kmh 29.77 in1008.1 mb 0.00 in0.0 mm 0.00 in0.0 mm 0.02 in0.5 mm
11:45 PM 43.2°F6.2°C 41.5°F5.3°C 94% 1.0 mph SW1.6 kmh SW 6.0 mph9.7 kmh 29.77 in1008.1 mb 0.00 in0.0 mm 0.00 in0.0 mm 0.02 in0.5 mm
11:50 PM 43.2°F6.2°C 41.5°F5.3°C 94% 1.0 mph SW1.6 kmh SW 3.0 mph4.8 kmh 29.77 in1008.1 mb 0.00 in0.0 mm 0.00 in0.0 mm 0.02 in0.5 mm
11:55 PM 43.3°F6.3°C 41.7°F5.4°C 94% 1.0 mph SW1.6 kmh SW 5.0 mph8.0 kmh 29.77 in1008.1 mb 0.00 in0.0 mm 0.00 in0.0 mm 0.02 in0.5 mm